Current Weather

Joliet Rgnl

Joliet, Illinois (KJOT)

Report from: Monday, February 6, 2023 12:35 AM CST
Current time: Monday, February 6, 2023 12:57 AM CST

Nearby weather
Weather history
Weather forecast

Temperature-5.2°C (22.6°F)
Dew point-6.4°C (20.5°F)
Winds Calm
Visibility7 mi. (11.3 km)
Clouds Sky clear
Altimeter30.19 in.Hg (1022 mB)
Relative humidity91 %
Density altitude-2,749 ft. (-838 m)
Remarks Fully automated report
Automated weather observing station with precipitation discriminator
Flight conditions Visual Meteorological Conditions
Raw dataKJOT 060635Z AUTO 00000KT 7SM CLR M05/M06 A3019 RMK AO2 T10521064
An error has occurred. This application may no longer respond until reloaded. Reload 🗙